Time;durP1;ratioP1;P1;durP2;ratioP2;P2;SDS_P1;SDS_P2;PMS_P1;PMS_P2;Temp;Humidity;BMP_temperature;BMP_pressure;BME280_temperature;BME280_humidity;BME280_pressure;Samples;Min_cycle;Max_cycle;Signal;HPM_P1;HPM_P2
2022/12/10 00:01:47;;;;;;;40.03;17.70;;;;;;;10.33;100.00;94259.91;5034461;28;20526;-85
2022/12/10 00:04:15;;;;;;;56.43;23.53;;;;;;;10.33;100.00;94262.53;5034697;28;20444;-84
2022/12/10 00:06:43;;;;;;;67.67;27.57;;;;;;;10.29;100.00;94262.97;5034827;28;20782;-85
2022/12/10 00:09:17;;;;;;;54.93;24.63;;;;;;;10.32;100.00;94253.00;5034646;28;20455;-85
2022/12/10 00:11:44;;;;;;;40.30;22.00;;;;;;;10.36;100.00;94249.13;5034448;28;20467;-84
2022/12/10 00:14:12;;;;;;;47.03;24.13;;;;;;;10.38;100.00;94252.44;5034609;28;21019;-84
2022/12/10 00:16:44;;;;;;;66.97;25.53;;;;;;;10.33;100.00;94240.72;5034348;28;20443;-86
2022/12/10 00:19:11;;;;;;;68.03;29.30;;;;;;;10.17;100.00;94208.06;5034859;28;20460;-82
2022/12/10 00:21:38;;;;;;;52.13;27.50;;;;;;;10.01;100.00;94247.16;5034583;28;20459;-87
2022/12/10 00:24:06;;;;;;;56.23;26.47;;;;;;;9.98;100.00;94234.34;5034539;28;20923;-84
2022/12/10 00:26:35;;;;;;;39.83;18.47;;;;;;;9.98;100.00;94236.13;5034100;28;20452;-84
2022/12/10 00:29:04;;;;;;;41.67;19.90;;;;;;;9.96;100.00;94230.22;5034096;28;20459;-84
2022/12/10 00:31:33;;;;;;;36.73;19.70;;;;;;;9.97;100.00;94237.94;4999888;28;20564;-84
2022/12/10 00:34:03;;;;;;;38.20;19.90;;;;;;;9.98;100.00;94228.28;5034247;28;20858;-84
2022/12/10 00:36:31;;;;;;;38.17;20.70;;;;;;;9.90;100.00;94221.94;5034713;28;20451;-85
2022/12/10 00:38:59;;;;;;;50.87;28.07;;;;;;;9.91;100.00;94247.19;5000905;28;20448;-85
2022/12/10 00:41:26;;;;;;;33.90;19.50;;;;;;;9.98;100.00;94239.59;5035174;28;20451;-85
2022/12/10 00:43:53;;;;;;;32.73;19.73;;;;;;;9.99;100.00;94248.28;5035265;28;20439;-85
2022/12/10 00:46:20;;;;;;;27.63;18.00;;;;;;;10.01;100.00;94228.81;5033841;28;20972;-86
2022/12/10 00:48:47;;;;;;;35.17;19.27;;;;;;;10.09;100.00;94241.19;5034430;28;20802;-86
2022/12/10 00:51:17;;;;;;;44.90;22.67;;;;;;;10.08;100.00;94235.13;4967291;28;20449;-85
2022/12/10 00:53:46;;;;;;;45.07;22.70;;;;;;;10.09;100.00;94236.78;5034782;28;20845;-85
2022/12/10 00:56:15;;;;;;;47.70;20.97;;;;;;;10.13;100.00;94238.16;5034234;28;20461;-85
2022/12/10 00:58:42;;;;;;;35.63;19.10;;;;;;;10.11;100.00;94223.53;5034557;28;20824;-85
2022/12/10 01:01:11;;;;;;;32.07;18.77;;;;;;;10.14;100.00;94244.25;5035265;28;20432;-86
2022/12/10 01:03:38;;;;;;;31.27;14.73;;;;;;;10.09;100.00;94225.47;5035304;28;20801;-86
2022/12/10 01:06:11;;;;;;;37.80;15.63;;;;;;;10.04;100.00;94236.38;5033808;28;20438;-86
2022/12/10 01:08:39;;;;;;;38.67;21.70;;;;;;;10.06;100.00;94241.47;5034280;28;20450;-84
2022/12/10 01:11:06;;;;;;;31.30;18.07;;;;;;;9.99;100.00;94240.41;5034745;28;20930;-84
2022/12/10 01:13:33;;;;;;;23.73;13.50;;;;;;;10.01;100.00;94239.28;5033783;28;20487;-85
2022/12/10 01:16:02;;;;;;;32.63;16.80;;;;;;;10.03;100.00;94228.66;5034293;28;20449;-82
2022/12/10 01:18:29;;;;;;;30.03;13.40;;;;;;;10.04;100.00;94232.94;5034107;28;20941;-85
2022/12/10 01:20:55;;;;;;;23.83;13.60;;;;;;;10.10;100.00;94240.22;5000150;28;20454;-85
2022/12/10 01:23:22;;;;;;;25.17;12.87;;;;;;;10.12;100.00;94240.91;5039087;28;20454;-85
2022/12/10 01:25:51;;;;;;;20.97;13.10;;;;;;;10.22;100.00;94226.84;5003704;28;20498;-85
2022/12/10 01:28:17;;;;;;;23.83;14.00;;;;;;;10.25;100.00;94223.09;5037756;28;20849;-85
2022/12/10 01:30:44;;;;;;;22.37;12.60;;;;;;;10.33;100.00;94215.31;5038232;28;20497;-85
2022/12/10 01:33:11;;;;;;;30.43;16.23;;;;;;;10.33;100.00;94204.00;5037340;28;20830;-84
2022/12/10 01:35:38;;;;;;;29.67;16.57;;;;;;;10.36;100.00;94201.09;5002682;28;20451;-83
2022/12/10 01:38:05;;;;;;;24.17;16.40;;;;;;;10.37;100.00;94205.38;5037824;28;20475;-84
2022/12/10 01:40:32;;;;;;;33.00;16.57;;;;;;;10.36;100.00;94201.09;5037730;28;20452;-84
2022/12/10 01:43:00;;;;;;;27.70;15.60;;;;;;;10.39;100.00;94212.13;5036883;28;20455;-84
2022/12/10 01:45:27;;;;;;;24.00;16.00;;;;;;;10.39;100.00;94217.38;5036895;28;20804;-84
2022/12/10 01:47:54;;;;;;;29.17;14.57;;;;;;;10.41;100.00;94214.63;5036728;28;20468;-84
2022/12/10 01:50:21;;;;;;;22.23;14.50;;;;;;;10.34;100.00;94206.50;5037429;28;20459;-83
2022/12/10 01:52:49;;;;;;;31.10;14.80;;;;;;;10.20;100.00;94201.72;5036574;28;20484;-83
2022/12/10 01:55:45;;;;;;;34.77;15.00;;;;;;;10.23;100.00;94196.19;5036810;28;20444;-83
2022/12/10 01:58:15;;;;;;;20.43;13.97;;;;;;;10.22;100.00;94210.28;5036521;28;20463;-83
2022/12/10 02:00:50;;;;;;;33.73;13.83;;;;;;;10.11;100.00;94203.38;5036380;28;20459;-84
2022/12/10 02:03:30;;;;;;;25.20;13.93;;;;;;;10.22;100.00;94203.25;5036236;28;20453;-85
2022/12/10 02:06:06;;;;;;;20.50;12.00;;;;;;;10.20;100.00;94197.31;5036505;28;20447;-85
2022/12/10 02:08:41;;;;;;;12.40;9.20;;;;;;;10.34;100.00;94197.78;5036102;28;20451;-85
2022/12/10 02:11:17;;;;;;;11.27;5.50;;;;;;;10.69;100.00;94191.78;5037298;28;20808;-86
2022/12/10 02:13:53;;;;;;;7.00;4.67;;;;;;;11.21;100.00;94187.53;5036626;28;20485;-88
2022/12/10 02:16:28;;;;;;;7.63;4.10;;;;;;;11.68;100.00;94198.59;5036617;28;20458;-89
2022/12/10 02:18:58;;;;;;;11.07;5.03;;;;;;;11.99;98.52;94195.53;5037415;28;20821;-87
2022/12/10 02:21:28;;;;;;;5.10;4.30;;;;;;;12.29;97.27;94196.84;5036530;28;20795;-86
2022/12/10 02:23:59;;;;;;;11.17;5.53;;;;;;;12.48;95.01;94204.50;5035921;28;20446;-86
2022/12/10 02:26:33;;;;;;;6.30;3.90;;;;;;;12.73;92.91;94204.59;5036468;28;20454;-86
2022/12/10 02:29:13;;;;;;;5.10;4.07;;;;;;;12.96;91.58;94203.81;5036098;28;21041;-86
2022/12/10 02:31:45;;;;;;;8.90;4.03;;;;;;;13.09;90.26;94187.56;5036322;28;21015;-86
2022/12/10 02:34:13;;;;;;;11.50;4.17;;;;;;;13.24;89.28;94195.66;5036722;28;20450;-88
2022/12/10 02:36:45;;;;;;;8.60;3.90;;;;;;;13.35;88.79;94186.63;5036569;28;20930;-87
2022/12/10 02:39:16;;;;;;;9.77;4.20;;;;;;;13.44;88.51;94185.63;5036551;28;20809;-88
2022/12/10 02:41:48;;;;;;;5.87;3.30;;;;;;;13.51;87.99;94181.34;5036151;28;20492;-89
2022/12/10 02:44:19;;;;;;;8.70;3.93;;;;;;;13.58;87.55;94172.59;5036633;28;20439;-88
2022/12/10 02:46:49;;;;;;;12.93;5.03;;;;;;;13.63;87.93;94162.41;5037328;28;20552;-87
2022/12/10 02:49:18;;;;;;;7.63;4.10;;;;;;;13.66;86.96;94168.34;5036566;28;20451;-88
2022/12/10 02:51:45;;;;;;;8.30;3.90;;;;;;;13.70;86.92;94167.00;5036385;28;20458;-89
2022/12/10 02:54:37;;;;;;;9.00;4.40;;;;;;;13.74;86.17;94170.97;5036723;28;20465;-89
2022/12/10 02:57:17;;;;;;;8.93;5.13;;;;;;;13.77;86.27;94167.97;5036987;28;20448;-88
2022/12/10 02:59:59;;;;;;;5.77;3.10;;;;;;;13.82;85.38;94174.41;5036459;28;20430;-89
2022/12/10 03:02:34;;;;;;;10.73;4.40;;;;;;;13.89;85.70;94187.75;5036863;28;20446;-87
2022/12/10 03:05:05;;;;;;;3.97;3.57;;;;;;;13.95;85.44;94192.34;5035743;28;20944;-88
2022/12/10 03:07:37;;;;;;;10.17;3.90;;;;;;;13.98;85.22;94194.66;5035742;28;20929;-87
2022/12/10 03:10:11;;;;;;;8.73;4.30;;;;;;;14.01;85.19;94193.50;5036507;28;20456;-88
2022/12/10 03:12:49;;;;;;;7.03;4.10;;;;;;;14.00;85.58;94187.41;5036865;28;20504;-88
2022/12/10 03:15:19;;;;;;;6.30;4.00;;;;;;;13.98;85.78;94184.09;5035828;28;20442;-87
2022/12/10 03:17:48;;;;;;;13.93;3.50;;;;;;;14.01;85.55;94177.66;5036368;28;20473;-87
2022/12/10 03:20:16;;;;;;;5.90;3.83;;;;;;;14.01;85.21;94189.03;5035672;28;20450;-89
2022/12/10 03:22:47;;;;;;;6.93;4.10;;;;;;;14.03;85.62;94184.41;5036067;28;20506;-85
2022/12/10 03:25:20;;;;;;;7.40;4.50;;;;;;;14.07;85.84;94177.00;5036092;28;20454;-87
2022/12/10 03:27:50;;;;;;;7.70;4.50;;;;;;;14.08;85.91;94179.47;5035380;28;20461;-87
2022/12/10 03:30:19;;;;;;;5.60;3.70;;;;;;;14.09;86.54;94169.72;5035747;28;20451;-87
2022/12/10 03:32:46;;;;;;;7.17;3.53;;;;;;;14.04;86.34;94158.88;5035324;28;20509;-87
2022/12/10 03:35:15;;;;;;;5.33;3.10;;;;;;;14.03;86.21;94160.69;5035161;28;20447;-85
2022/12/10 03:37:42;;;;;;;5.50;3.37;;;;;;;14.06;86.21;94160.34;5001019;28;20513;-85
2022/12/10 03:40:11;;;;;;;10.07;3.20;;;;;;;14.04;85.68;94172.06;5035395;28;20440;-85
2022/12/10 03:42:38;;;;;;;8.60;5.43;;;;;;;14.05;84.82;94184.25;5034482;28;20525;-86
2022/12/10 03:45:07;;;;;;;21.17;8.83;;;;;;;13.67;84.77;94172.63;5034350;28;20793;-85
2022/12/10 03:47:35;;;;;;;20.67;8.93;;;;;;;13.39;85.92;94177.41;5034550;28;20525;-85
2022/12/10 03:50:02;;;;;;;12.40;7.87;;;;;;;13.20;86.63;94178.53;5034490;28;20477;-84
2022/12/10 03:52:29;;;;;;;12.97;8.70;;;;;;;12.75;89.00;94169.22;5034486;28;20486;-85
2022/12/10 03:54:56;;;;;;;16.40;8.47;;;;;;;12.43;90.51;94174.38;4983992;28;20972;-84
2022/12/10 03:57:23;;;;;;;15.90;9.50;;;;;;;12.25;92.00;94156.06;5034627;28;20449;-84
2022/12/10 03:59:50;;;;;;;19.83;11.30;;;;;;;12.21;92.66;94171.34;5034749;28;20448;-86
2022/12/10 04:02:17;;;;;;;20.00;9.90;;;;;;;12.08;92.75;94155.16;5034384;28;20447;-84
2022/12/10 04:04:45;;;;;;;13.93;9.50;;;;;;;11.93;94.14;94159.38;5034984;28;20516;-84
2022/12/10 04:07:12;;;;;;;19.87;10.47;;;;;;;11.90;94.34;94144.72;5035146;28;20435;-85
2022/12/10 04:09:39;;;;;;;16.20;9.33;;;;;;;11.87;95.04;94142.41;5034205;28;20813;-84
2022/12/10 04:12:07;;;;;;;16.97;10.00;;;;;;;11.62;96.84;94123.00;5034630;28;20777;-85
2022/12/10 04:17:18;;;;;;;16.57;8.23;;;;;;;11.75;96.31;94128.66;5034458;28;20438;-85
2022/12/10 04:19:46;;;;;;;11.03;7.50;;;;;;;11.66;97.02;94123.53;5034422;28;20450;-84
2022/12/10 04:27:41;;;;;;;7.13;4.90;;;;;;;11.85;97.21;94122.50;5034436;28;20642;-86
2022/12/10 04:30:12;;;;;;;10.00;5.57;;;;;;;11.98;96.93;94128.16;5034302;28;20450;-85
2022/12/10 04:32:39;;;;;;;7.13;4.30;;;;;;;12.18;96.29;94131.38;5034730;28;20477;-87
2022/12/10 04:35:09;;;;;;;7.47;3.60;;;;;;;12.47;94.35;94138.88;5014953;28;20437;-85
2022/12/10 04:37:36;;;;;;;5.63;3.20;;;;;;;12.71;93.09;94131.03;5034563;28;20192;-86
2022/12/10 04:40:04;;;;;;;2.77;2.57;;;;;;;12.91;91.84;94136.81;5034940;28;20501;-88
2022/12/10 04:42:31;;;;;;;3.27;2.47;;;;;;;13.11;90.34;94146.06;4999711;28;20457;-87
2022/12/10 04:44:58;;;;;;;5.47;2.90;;;;;;;13.27;90.06;94142.63;5034118;28;20844;-87
2022/12/10 04:47:25;;;;;;;4.90;2.40;;;;;;;13.41;89.88;94159.63;5034737;28;20800;-84
2022/12/10 04:49:52;;;;;;;6.43;5.40;;;;;;;13.47;90.01;94169.50;5034116;28;20446;-82
2022/12/10 04:52:20;;;;;;;11.73;6.43;;;;;;;13.47;91.72;94175.59;5034007;28;20810;-85
2022/12/10 04:54:47;;;;;;;10.40;7.80;;;;;;;13.28;92.95;94168.00;5033239;28;20442;-84
2022/12/10 04:57:14;;;;;;;8.17;6.37;;;;;;;13.05;94.30;94164.34;5033074;28;20459;-86
2022/12/10 04:59:41;;;;;;;14.37;8.27;;;;;;;12.94;96.07;94153.13;5033851;28;21176;-86
2022/12/10 05:02:08;;;;;;;13.90;6.63;;;;;;;12.67;97.52;94166.56;5034287;28;20450;-85
2022/12/10 05:04:35;;;;;;;12.13;9.23;;;;;;;12.38;99.87;94156.44;5033625;28;20446;-85
2022/12/10 05:07:02;;;;;;;11.00;8.07;;;;;;;12.20;100.00;94161.81;5033219;28;20446;-85
2022/12/10 05:09:30;;;;;;;14.50;8.83;;;;;;;11.98;100.00;94159.72;5033851;28;20453;-84
2022/12/10 05:11:57;;;;;;;14.53;9.07;;;;;;;11.93;100.00;94156.72;5033247;28;21084;-85
2022/12/10 05:14:27;;;;;;;14.23;7.90;;;;;;;11.78;100.00;94157.28;5033078;28;20489;-83
2022/12/10 05:16:54;;;;;;;13.77;10.30;;;;;;;11.65;100.00;94151.59;5033608;28;20893;-84
2022/12/10 05:19:23;;;;;;;12.90;8.37;;;;;;;11.57;100.00;94151.56;5033415;28;20465;-86
2022/12/10 05:24:36;;;;;;;20.53;10.47;;;;;;;11.46;100.00;94151.78;5024697;28;20442;-84
2022/12/10 05:27:03;;;;;;;14.57;10.60;;;;;;;11.43;100.00;94134.53;5028614;28;20944;-84
2022/12/10 05:29:31;;;;;;;22.00;12.87;;;;;;;11.32;100.00;94132.19;5033810;28;20952;-85
2022/12/10 05:31:58;;;;;;;18.13;11.20;;;;;;;11.08;100.00;94124.09;5034015;28;20447;-86
2022/12/10 05:34:25;;;;;;;16.10;12.30;;;;;;;10.88;100.00;94120.81;5033228;28;20493;-83
2022/12/10 05:36:51;;;;;;;17.37;12.23;;;;;;;10.93;100.00;94136.94;5032910;28;20458;-82
2022/12/10 05:39:18;;;;;;;21.40;10.90;;;;;;;10.95;100.00;94140.22;4997903;28;20460;-81
2022/12/10 05:41:46;;;;;;;20.20;11.03;;;;;;;10.95;100.00;94134.97;5032961;28;20500;-82
2022/12/10 05:44:15;;;;;;;14.93;11.47;;;;;;;10.99;100.00;94154.72;4998560;28;20794;-83
2022/12/10 05:46:42;;;;;;;14.20;9.90;;;;;;;11.03;100.00;94142.13;4997922;28;20478;-81
2022/12/10 05:49:09;;;;;;;12.97;9.93;;;;;;;11.00;100.00;94139.81;5033642;28;20450;-85
2022/12/10 05:51:38;;;;;;;23.80;12.20;;;;;;;11.03;100.00;94152.63;5033535;28;20442;-84
2022/12/10 05:54:06;;;;;;;17.53;9.60;;;;;;;11.08;100.00;94150.34;5033644;28;20483;-85
2022/12/10 05:56:33;;;;;;;21.97;9.80;;;;;;;10.93;100.00;94147.44;5034034;28;20448;-85
2022/12/10 05:59:04;;;;;;;20.97;11.30;;;;;;;11.00;100.00;94150.28;5033717;28;20453;-86
2022/12/10 06:01:33;;;;;;;23.30;15.43;;;;;;;11.02;100.00;94170.16;5034083;28;20446;-87
2022/12/10 06:04:01;;;;;;;12.30;10.33;;;;;;;10.96;100.00;94162.88;5032657;28;20451;-85
2022/12/10 06:06:29;;;;;;;17.20;11.30;;;;;;;11.00;100.00;94172.13;5030271;28;20479;-87
2022/12/10 06:08:57;;;;;;;16.93;10.43;;;;;;;11.11;100.00;94174.50;5037930;28;20461;-85
2022/12/10 06:11:26;;;;;;;19.57;13.30;;;;;;;11.14;100.00;94163.69;5037110;28;20450;-86
2022/12/10 06:13:54;;;;;;;13.83;10.73;;;;;;;11.10;100.00;94164.16;5037150;28;20502;-84
2022/12/10 06:16:23;;;;;;;21.23;15.30;;;;;;;11.10;100.00;94170.22;5037044;28;20468;-83
2022/12/10 06:18:50;;;;;;;17.10;12.70;;;;;;;11.09;100.00;94162.50;5039047;28;20453;-84
2022/12/10 06:21:18;;;;;;;17.30;13.00;;;;;;;11.11;100.00;94156.13;5039696;28;20944;-87
2022/12/10 06:23:45;;;;;;;21.73;13.53;;;;;;;11.09;100.00;94168.59;5038741;28;20464;-86
2022/12/10 06:26:13;;;;;;;19.83;11.75;;;;;;;11.15;100.00;94167.97;5041848;28;20456;-83
2022/12/10 06:28:41;;;;;;;18.80;13.20;;;;;;;11.25;100.00;94170.50;5038959;28;20647;-83
2022/12/10 06:31:09;;;;;;;30.47;14.37;;;;;;;11.22;100.00;94176.06;5002506;28;20472;-81
2022/12/10 06:33:37;;;;;;;26.20;16.60;;;;;;;11.30;100.00;94170.91;5001444;28;20500;-84
2022/12/10 06:36:05;;;;;;;20.90;15.00;;;;;;;11.45;100.00;94179.88;5035840;28;20444;-84
2022/12/10 06:38:33;;;;;;;19.27;11.07;;;;;;;11.52;100.00;94171.38;5036306;28;20238;-85
2022/12/10 06:40:59;;;;;;;18.80;11.20;;;;;;;11.57;100.00;94167.34;5036317;28;20458;-85
2022/12/10 06:43:29;;;;;;;15.40;11.23;;;;;;;11.55;100.00;94168.44;5036510;28;20799;-85
2022/12/10 06:45:56;;;;;;;16.30;12.23;;;;;;;11.61;100.00;94167.84;5036400;28;20797;-86
2022/12/10 06:48:23;;;;;;;42.40;15.17;;;;;;;11.49;100.00;94146.22;5036332;28;20515;-87
2022/12/10 06:50:52;;;;;;;22.07;13.73;;;;;;;11.51;100.00;94165.28;5036389;28;20445;-85
2022/12/10 06:53:19;;;;;;;30.83;16.00;;;;;;;11.46;100.00;94163.13;5035496;28;21006;-83
2022/12/10 06:55:46;;;;;;;22.30;14.40;;;;;;;11.45;100.00;94171.16;5035883;28;20480;-84
2022/12/10 06:58:13;;;;;;;23.33;16.33;;;;;;;11.51;100.00;94175.81;5035853;28;20473;-86
2022/12/10 07:00:39;;;;;;;29.80;18.90;;;;;;;11.59;100.00;94165.38;5035499;28;20518;-83
2022/12/10 07:03:06;;;;;;;29.40;16.97;;;;;;;11.68;100.00;94174.94;5035444;28;20458;-87
2022/12/10 07:05:33;;;;;;;22.47;18.03;;;;;;;11.74;100.00;94179.59;4985521;28;20458;-86
2022/12/10 07:08:01;;;;;;;31.83;21.70;;;;;;;11.77;100.00;94189.78;5036235;28;20453;-86
2022/12/10 07:10:28;;;;;;;24.77;17.80;;;;;;;11.68;100.00;94177.56;5035530;28;20465;-85
2022/12/10 07:12:55;;;;;;;29.33;21.90;;;;;;;11.77;100.00;94176.63;5000540;28;20788;-84
2022/12/10 07:15:23;;;;;;;35.83;25.83;;;;;;;11.79;100.00;94172.09;5035675;28;20497;-83
2022/12/10 07:17:51;;;;;;;35.83;20.93;;;;;;;11.73;100.00;94175.31;5034578;28;20483;-75
2022/12/10 07:20:18;;;;;;;57.70;43.83;;;;;;;11.62;100.00;94180.81;5033851;28;20521;-78
2022/12/10 07:22:45;;;;;;;29.07;18.80;;;;;;;11.53;100.00;94175.66;5035204;28;20452;-79
2022/12/10 07:25:13;;;;;;;29.47;21.23;;;;;;;11.53;100.00;94170.38;5035067;28;20446;-79
2022/12/10 07:27:40;;;;;;;37.93;22.43;;;;;;;11.43;100.00;94160.81;5034749;28;20458;-78
2022/12/10 07:30:08;;;;;;;28.00;15.87;;;;;;;11.35;100.00;94141.56;5034682;28;20464;-78
2022/12/10 07:32:35;;;;;;;19.47;14.97;;;;;;;11.23;100.00;94148.00;5034938;28;20449;-77
2022/12/10 07:35:01;;;;;;;21.43;16.33;;;;;;;11.41;100.00;94157.50;5034955;28;20485;-78
2022/12/10 07:37:28;;;;;;;23.80;17.83;;;;;;;11.51;100.00;94138.19;4999881;28;20437;-78
2022/12/10 07:39:56;;;;;;;34.20;17.43;;;;;;;11.50;100.00;94118.97;5034307;28;20450;-78
2022/12/10 07:42:24;;;;;;;25.10;17.80;;;;;;;11.59;100.00;94149.59;5034512;28;20519;-77
2022/12/10 07:44:51;;;;;;;25.63;15.73;;;;;;;11.67;100.00;94154.06;5034366;28;20453;-78
2022/12/10 07:47:19;;;;;;;34.33;18.33;;;;;;;11.57;100.00;94140.22;5034413;28;20474;-78
2022/12/10 07:49:46;;;;;;;38.03;19.30;;;;;;;11.61;100.00;94142.38;5034683;28;20466;-77
2022/12/10 07:52:13;;;;;;;29.10;17.53;;;;;;;11.70;100.00;94165.09;5034127;28;20457;-77
2022/12/10 07:54:39;;;;;;;38.37;21.43;;;;;;;11.71;100.00;94161.50;5000207;28;20484;-82
2022/12/10 07:57:06;;;;;;;36.70;23.17;;;;;;;11.60;100.00;94142.53;5034440;28;20454;-82
2022/12/10 07:59:34;;;;;;;28.70;20.27;;;;;;;11.61;100.00;94152.91;5034655;28;20752;-87
2022/12/10 08:02:01;;;;;;;33.63;20.40;;;;;;;11.58;100.00;94136.63;5034713;28;20458;-83
2022/12/10 08:04:29;;;;;;;24.90;16.73;;;;;;;11.47;100.00;94114.03;5034539;28;20811;-83
2022/12/10 08:06:57;;;;;;;25.23;17.17;;;;;;;11.39;100.00;94116.63;5034269;28;20489;-82
2022/12/10 08:09:24;;;;;;;29.73;18.97;;;;;;;11.47;100.00;94130.63;5034836;28;20447;-80
2022/12/10 08:11:50;;;;;;;31.50;20.20;;;;;;;11.55;100.00;94121.97;5033935;28;20806;-86
2022/12/10 08:14:17;;;;;;;26.63;17.27;;;;;;;11.66;100.00;94139.28;5033957;28;20503;-81
2022/12/10 08:16:45;;;;;;;21.93;14.30;;;;;;;11.74;100.00;94129.66;4998659;28;20450;-83
2022/12/10 08:19:12;;;;;;;21.73;15.00;;;;;;;11.81;100.00;94124.63;5033307;28;20906;-79
2022/12/10 08:21:39;;;;;;;28.00;18.80;;;;;;;11.78;100.00;94103.91;5034579;28;20513;-84
2022/12/10 08:24:06;;;;;;;38.33;16.10;;;;;;;11.82;100.00;94110.50;4982754;28;20468;-85
2022/12/10 08:26:34;;;;;;;36.27;16.60;;;;;;;11.63;100.00;94114.16;5033636;28;20438;-82
2022/12/10 08:29:01;;;;;;;30.03;20.37;;;;;;;11.79;100.00;94108.19;5033241;28;20448;-84
2022/12/10 08:31:29;;;;;;;29.30;18.60;;;;;;;11.79;100.00;94109.00;5034141;28;20469;-86
2022/12/10 08:33:57;;;;;;;35.73;20.33;;;;;;;11.88;100.00;94120.41;5033535;28;20489;-86
2022/12/10 08:36:24;;;;;;;33.33;16.73;;;;;;;12.01;100.00;94118.16;5033500;28;20450;-86
2022/12/10 08:38:54;;;;;;;27.83;17.67;;;;;;;12.06;100.00;94107.97;5033251;28;20450;-85
2022/12/10 08:41:23;;;;;;;35.90;22.70;;;;;;;12.06;100.00;94107.16;5033529;28;20507;-80
2022/12/10 08:43:52;;;;;;;35.10;20.90;;;;;;;12.01;100.00;94112.88;5033305;28;20454;-80
2022/12/10 08:46:18;;;;;;;38.00;25.50;;;;;;;11.93;100.00;94088.38;5034309;28;20512;-84
2022/12/10 08:48:45;;;;;;;37.90;25.10;;;;;;;11.90;100.00;94075.56;5033603;28;20797;-88
2022/12/10 08:51:17;;;;;;;33.50;22.80;;;;;;;12.02;100.00;94074.28;5033333;28;20465;-81
2022/12/10 08:53:44;;;;;;;33.40;21.40;;;;;;;12.13;100.00;94073.97;5033192;28;20450;-87
2022/12/10 08:56:11;;;;;;;48.67;30.77;;;;;;;12.08;100.00;94069.19;5033342;28;20447;-84
2022/12/10 08:58:39;;;;;;;35.73;26.33;;;;;;;12.09;100.00;94077.91;5033917;28;20453;-86
2022/12/10 09:01:09;;;;;;;39.10;26.40;;;;;;;12.19;100.00;94085.69;5033092;28;20460;-83
2022/12/10 09:03:36;;;;;;;42.03;25.60;;;;;;;12.27;100.00;94078.63;5032967;28;20507;-84
2022/12/10 09:06:05;;;;;;;29.60;20.57;;;;;;;12.30;100.00;94078.31;5032962;28;20450;-82
2022/12/10 09:08:33;;;;;;;31.70;19.80;;;;;;;12.43;100.00;94088.34;5032930;28;20948;-83
2022/12/10 09:11:06;;;;;;;30.70;20.90;;;;;;;12.53;100.00;94082.97;5031832;28;20553;-85
2022/12/10 09:13:33;;;;;;;41.60;22.70;;;;;;;12.62;100.00;94079.34;5032474;28;20497;-86
2022/12/10 09:16:00;;;;;;;34.07;23.17;;;;;;;12.62;100.00;94068.84;5018913;28;20540;-85
2022/12/10 09:18:27;;;;;;;29.33;21.77;;;;;;;12.63;100.00;94068.66;5033476;28;20462;-88
2022/12/10 09:20:54;;;;;;;30.80;21.07;;;;;;;12.64;100.00;94056.34;5034026;28;20955;-89
2022/12/10 09:23:21;;;;;;;36.10;20.17;;;;;;;12.55;100.00;94046.78;5032961;28;20446;-86
2022/12/10 09:25:49;;;;;;;35.70;23.83;;;;;;;12.53;100.00;94056.66;5020535;28;20939;-85
2022/12/10 09:28:16;;;;;;;38.00;24.20;;;;;;;12.59;100.00;94056.00;5033650;28;20458;-85
2022/12/10 09:30:43;;;;;;;32.73;20.43;;;;;;;12.54;100.00;94060.94;5033183;28;20462;-80
2022/12/10 09:33:10;;;;;;;37.30;17.47;;;;;;;12.52;100.00;94050.56;5033189;28;20454;-80
2022/12/10 09:35:41;;;;;;;24.73;16.30;;;;;;;12.52;100.00;94049.75;4997769;28;20482;-83
2022/12/10 09:38:09;;;;;;;29.90;17.07;;;;;;;12.56;100.00;94049.25;5028081;28;20537;-82
2022/12/10 09:40:41;;;;;;;30.40;15.90;;;;;;;12.61;100.00;94038.22;5033346;28;20956;-84
2022/12/10 09:43:18;;;;;;;27.73;18.30;;;;;;;12.70;100.00;94050.41;5035305;28;20459;-87
2022/12/10 09:45:56;;;;;;;30.40;21.03;;;;;;;12.67;100.00;94034.94;5037364;28;20537;-87
2022/12/10 09:48:30;;;;;;;43.73;22.27;;;;;;;12.72;100.00;94032.63;5036729;28;20473;-83
2022/12/10 09:51:06;;;;;;;26.47;21.37;;;;;;;12.82;100.00;94043.84;5034250;28;20449;-83
2022/12/10 09:53:37;;;;;;;36.73;20.70;;;;;;;13.00;100.00;94025.22;5026305;28;20450;-83
2022/12/10 09:56:04;;;;;;;34.97;21.60;;;;;;;13.12;100.00;94020.47;5036994;28;20497;-84
2022/12/10 09:58:41;;;;;;;30.20;20.53;;;;;;;13.21;100.00;94022.13;5001855;28;20936;-83
2022/12/10 10:01:15;;;;;;;36.50;23.33;;;;;;;13.29;100.00;94020.28;5037177;28;20458;-84
2022/12/10 10:03:43;;;;;;;30.30;21.67;;;;;;;13.31;100.00;94004.34;5036787;28;20453;-79
2022/12/10 10:06:12;;;;;;;31.47;22.67;;;;;;;13.27;100.00;94005.63;5001759;28;20443;-81
2022/12/10 10:08:42;;;;;;;31.97;22.90;;;;;;;13.32;100.00;94019.97;4985364;28;20446;-81
2022/12/10 10:11:15;;;;;;;37.17;20.77;;;;;;;13.38;100.00;94012.38;5036592;28;20786;-83
2022/12/10 10:13:46;;;;;;;32.10;19.83;;;;;;;13.37;100.00;94006.28;5036367;28;20446;-81
2022/12/10 10:16:24;;;;;;;27.53;18.33;;;;;;;13.34;100.00;94006.63;5036173;28;20508;-85
2022/12/10 10:18:57;;;;;;;20.33;16.97;;;;;;;13.35;100.00;94005.63;5035463;28;20461;-81
2022/12/10 10:21:26;;;;;;;26.13;21.03;;;;;;;13.34;100.00;94022.44;5036477;28;20456;-85
2022/12/10 10:23:53;;;;;;;36.10;24.60;;;;;;;13.36;100.00;94015.19;5036775;28;20861;-85
2022/12/10 10:26:20;;;;;;;29.50;22.43;;;;;;;13.45;100.00;93992.25;5001698;28;20461;-85
2022/12/10 10:28:57;;;;;;;31.97;21.20;;;;;;;13.50;100.00;94001.28;5036872;28;20443;-86
2022/12/10 10:31:27;;;;;;;32.30;19.37;;;;;;;13.47;100.00;93995.53;5037414;28;20489;-86
2022/12/10 10:33:56;;;;;;;31.33;20.13;;;;;;;13.61;100.00;93986.94;5036765;28;20806;-85
2022/12/10 10:36:26;;;;;;;30.83;20.13;;;;;;;13.74;100.00;93986.38;5036755;28;20476;-84
2022/12/10 10:38:53;;;;;;;27.37;18.03;;;;;;;13.86;100.00;93977.91;5036264;28;20852;-86
2022/12/10 10:41:20;;;;;;;29.80;17.07;;;;;;;13.94;100.00;93969.16;5038703;28;20499;-85
2022/12/10 10:43:59;;;;;;;15.60;13.10;;;;;;;13.98;100.00;93972.28;5038237;28;20797;-82
2022/12/10 10:46:27;;;;;;;20.33;13.73;;;;;;;14.10;100.00;93965.59;5045883;28;20455;-87
2022/12/10 10:49:14;;;;;;;22.60;13.23;;;;;;;14.10;100.00;93944.50;5037381;28;20490;-87
2022/12/10 10:51:44;;;;;;;15.60;11.27;;;;;;;14.29;100.00;93953.78;5036597;28;20458;-87
2022/12/10 10:54:11;;;;;;;19.20;15.30;;;;;;;14.26;100.00;93945.22;5036612;28;20452;-89
2022/12/10 10:56:43;;;;;;;26.57;16.57;;;;;;;14.37;100.00;93967.72;5037208;28;20457;-89
2022/12/10 10:59:30;;;;;;;25.53;16.77;;;;;;;14.61;100.00;93947.47;5037298;28;20451;-89
2022/12/10 11:02:01;;;;;;;26.57;16.67;;;;;;;14.73;100.00;93936.28;5036320;28;20540;-87
2022/12/10 11:04:31;;;;;;;32.17;23.90;;;;;;;14.84;100.00;93933.22;5037072;28;20777;-86
2022/12/10 11:07:03;;;;;;;29.90;23.30;;;;;;;14.90;100.00;93944.91;5036489;28;20455;-88
2022/12/10 11:09:33;;;;;;;25.20;18.97;;;;;;;14.97;100.00;93945.00;5036344;28;20479;-83
2022/12/10 11:12:04;;;;;;;25.00;17.93;;;;;;;14.91;100.00;93927.22;5035484;28;20455;-87
2022/12/10 11:14:33;;;;;;;28.47;18.27;;;;;;;15.01;100.00;93904.00;5036120;28;20472;-86
2022/12/10 11:17:23;;;;;;;25.73;19.57;;;;;;;15.10;100.00;93902.94;5035915;28;20455;-87
2022/12/10 11:19:56;;;;;;;28.97;19.63;;;;;;;15.16;100.00;93908.31;5036035;28;20500;-87
2022/12/10 11:22:25;;;;;;;25.00;18.47;;;;;;;15.15;100.00;93895.28;5036384;28;20925;-85
2022/12/10 11:24:52;;;;;;;23.50;16.90;;;;;;;15.15;100.00;93879.41;5035775;28;20797;-82
2022/12/10 11:27:40;;;;;;;29.27;17.80;;;;;;;15.25;100.00;93877.31;5035669;28;20450;-83
2022/12/10 11:30:12;;;;;;;23.80;14.37;;;;;;;15.35;100.00;93883.16;5000381;28;20457;-85
2022/12/10 11:32:58;;;;;;;16.27;12.73;;;;;;;15.43;99.80;93879.59;5035688;28;20454;-81
2022/12/10 11:35:47;;;;;;;23.60;15.57;;;;;;;15.49;99.95;93879.66;5035549;28;21003;-84